createdAt,value
2022-11-23T00:02:09.125Z,4.13
2022-11-23T00:04:36.045Z,4.30
2022-11-23T00:07:02.736Z,4.38
2022-11-23T00:09:29.802Z,4.60
2022-11-23T00:11:56.780Z,4.78
2022-11-23T00:14:23.472Z,4.60
2022-11-23T00:16:50.182Z,4.50
2022-11-23T00:19:16.854Z,4.20
2022-11-23T00:21:43.596Z,5.22
2022-11-23T00:24:12.813Z,5.20
2022-11-23T00:26:39.641Z,3.90
2022-11-23T00:29:06.431Z,4.20
2022-11-23T00:31:33.315Z,4.40
2022-11-23T00:34:00.067Z,4.57
2022-11-23T00:36:27.639Z,4.80
2022-11-23T00:38:55.285Z,4.70
2022-11-23T00:41:25.423Z,5.00
2022-11-23T00:43:52.498Z,4.60
2022-11-23T00:46:27.337Z,4.68
2022-11-23T00:48:56.397Z,4.60
2022-11-23T00:51:26.444Z,4.70
2022-11-23T00:53:53.430Z,4.60
2022-11-23T00:56:20.703Z,5.15
2022-11-23T00:58:51.725Z,4.65
2022-11-23T01:03:49.091Z,5.20
2022-11-23T01:06:19.514Z,4.40
2022-11-23T01:08:54.683Z,4.63
2022-11-23T01:11:22.726Z,5.38
2022-11-23T01:13:49.669Z,4.43
2022-11-23T01:16:27.750Z,5.00
2022-11-23T01:18:55.275Z,4.70
2022-11-23T01:21:22.687Z,4.38
2022-11-23T01:23:49.771Z,4.72
2022-11-23T01:26:16.558Z,5.18
2022-11-23T01:28:43.390Z,4.85
2022-11-23T01:31:15.350Z,5.07
2022-11-23T01:33:42.699Z,4.63
2022-11-23T01:36:17.801Z,4.40
2022-11-23T01:38:45.668Z,4.68
2022-11-23T01:41:15.315Z,4.45
2022-11-23T01:43:42.053Z,4.68
2022-11-23T01:46:09.374Z,4.40
2022-11-23T01:48:52.994Z,4.97
2022-11-23T01:51:23.798Z,4.82
2022-11-23T01:53:54.416Z,5.22
2022-11-23T01:56:27.938Z,6.07
2022-11-23T01:58:58.842Z,4.45
2022-11-23T02:01:25.709Z,4.60
2022-11-23T02:03:55.142Z,4.60
2022-11-23T02:06:23.173Z,4.88
2022-11-23T02:08:50.936Z,5.10
2022-11-23T02:11:17.915Z,5.15
2022-11-23T02:13:47.353Z,4.65
2022-11-23T02:16:14.890Z,4.75
2022-11-23T02:18:44.411Z,4.75
2022-11-23T02:21:11.840Z,5.47
2022-11-23T02:23:52.507Z,4.68
2022-11-23T02:26:29.672Z,4.75
2022-11-23T02:29:05.461Z,4.70
2022-11-23T02:31:32.819Z,5.28
2022-11-23T02:33:59.546Z,4.57
2022-11-23T02:36:47.570Z,4.72
2022-11-23T02:39:19.766Z,5.10
2022-11-23T02:41:49.199Z,4.90
2022-11-23T02:44:31.827Z,4.85
2022-11-23T02:46:59.006Z,5.00
2022-11-23T02:49:25.927Z,5.20
2022-11-23T02:51:52.944Z,5.30
2022-11-23T02:54:19.931Z,5.00
2022-11-23T02:56:46.596Z,5.00
2022-11-23T02:59:13.341Z,4.90
2022-11-23T03:01:40.320Z,4.90
2022-11-23T03:04:07.616Z,5.07
2022-11-23T03:06:34.373Z,4.60
2022-11-23T03:09:01.184Z,4.50
2022-11-23T03:11:27.985Z,4.80
2022-11-23T03:13:54.861Z,5.10
2022-11-23T03:16:21.621Z,4.97
2022-11-23T03:18:48.283Z,4.68
2022-11-23T03:21:15.083Z,5.00
2022-11-23T03:23:41.739Z,4.60
2022-11-23T03:26:12.881Z,4.60
2022-11-23T03:28:40.393Z,4.70
2022-11-23T03:31:07.106Z,5.10
2022-11-23T03:33:33.996Z,5.10
2022-11-23T03:36:01.036Z,4.70
2022-11-23T03:38:28.045Z,5.10
2022-11-23T03:40:55.069Z,4.82
2022-11-23T03:43:22.041Z,4.90
2022-11-23T03:45:48.834Z,5.32
2022-11-23T03:48:16.238Z,5.32
2022-11-23T03:50:43.870Z,4.55
2022-11-23T03:53:11.020Z,5.18
2022-11-23T03:55:38.045Z,5.13
2022-11-23T03:58:05.097Z,5.15
2022-11-23T04:00:32.081Z,4.72
2022-11-23T04:02:58.920Z,5.28
2022-11-23T04:05:27.784Z,5.22
2022-11-23T04:07:54.562Z,4.72
2022-11-23T04:10:21.259Z,4.50
2022-11-23T04:12:51.981Z,4.80
2022-11-23T04:15:19.650Z,5.28
2022-11-23T04:17:46.517Z,5.00
2022-11-23T04:20:13.843Z,4.80
2022-11-23T04:22:40.834Z,5.25
2022-11-23T04:25:08.054Z,5.00
2022-11-23T04:27:34.738Z,5.00
2022-11-23T04:30:01.471Z,4.65
2022-11-23T04:32:28.217Z,4.53
2022-11-23T04:34:54.912Z,4.97
2022-11-23T04:37:21.606Z,4.70
2022-11-23T04:39:48.271Z,4.80
2022-11-23T04:42:15.350Z,4.28
2022-11-23T04:44:42.072Z,4.43
2022-11-23T04:47:10.589Z,4.90
2022-11-23T04:49:37.363Z,4.20
2022-11-23T04:52:05.878Z,4.68
2022-11-23T04:54:32.631Z,5.35
2022-11-23T04:56:59.723Z,4.68
2022-11-23T04:59:26.697Z,4.70
2022-11-23T05:01:53.399Z,4.47
2022-11-23T05:04:20.609Z,4.70
2022-11-23T05:06:47.319Z,4.47
2022-11-23T05:09:14.056Z,4.30
2022-11-23T05:11:40.900Z,4.32
2022-11-23T05:14:07.741Z,4.75
2022-11-23T05:16:34.581Z,5.38
2022-11-23T05:19:01.394Z,4.40
2022-11-23T05:21:28.221Z,4.47
2022-11-23T05:23:54.983Z,4.50
2022-11-23T05:26:22.001Z,4.93
2022-11-23T05:28:48.708Z,5.88
2022-11-23T05:31:15.428Z,4.82
2022-11-23T05:33:42.181Z,4.57
2022-11-23T05:36:09.852Z,4.93
2022-11-23T05:38:36.634Z,4.93
2022-11-23T05:41:03.434Z,5.15
2022-11-23T05:43:30.918Z,4.75
2022-11-23T05:46:00.264Z,5.40
2022-11-23T05:48:27.008Z,4.55
2022-11-23T05:50:54.129Z,4.72
2022-11-23T05:53:20.837Z,4.97
2022-11-23T05:55:47.673Z,4.20
2022-11-23T05:58:14.523Z,4.97
2022-11-23T06:00:41.163Z,4.28
2022-11-23T06:03:08.279Z,5.68
2022-11-23T06:05:34.992Z,6.32
2022-11-23T06:08:01.732Z,4.80
2022-11-23T06:10:28.557Z,4.40
2022-11-23T06:12:55.279Z,4.72
2022-11-23T06:15:22.061Z,4.35
2022-11-23T06:17:48.741Z,5.90
2022-11-23T06:20:15.542Z,5.47
2022-11-23T06:22:42.295Z,4.40
2022-11-23T06:25:09.516Z,4.65
2022-11-23T06:27:36.511Z,4.60
2022-11-23T06:30:03.924Z,4.88
2022-11-23T06:32:30.649Z,4.55
2022-11-23T06:35:00.794Z,5.35
2022-11-23T06:37:27.875Z,4.50
2022-11-23T06:39:54.543Z,4.75
2022-11-23T06:42:38.436Z,5.22
2022-11-23T06:45:06.877Z,4.57
2022-11-23T06:47:33.697Z,4.55
2022-11-23T06:50:00.449Z,5.50
2022-11-23T06:52:27.291Z,4.88
2022-11-23T06:54:54.106Z,5.13
2022-11-23T06:57:20.783Z,4.60
2022-11-23T06:59:48.319Z,4.40
2022-11-23T07:02:15.721Z,4.63
2022-11-23T07:04:46.828Z,4.75
2022-11-23T07:07:13.726Z,5.03
2022-11-23T07:09:40.555Z,4.25
2022-11-23T07:12:07.720Z,5.22
2022-11-23T07:14:34.622Z,5.32
2022-11-23T07:17:01.329Z,4.80
2022-11-23T07:19:28.051Z,5.20
2022-11-23T07:21:54.772Z,4.80
2022-11-23T07:24:21.515Z,5.65
2022-11-23T07:26:48.188Z,5.00
2022-11-23T07:29:14.921Z,4.95
2022-11-23T07:31:41.781Z,5.32
2022-11-23T07:34:09.293Z,4.65
2022-11-23T07:36:36.655Z,4.65
2022-11-23T07:39:04.159Z,4.63
2022-11-23T07:41:30.955Z,4.78
2022-11-23T07:43:57.862Z,5.05
2022-11-23T07:46:24.674Z,4.90
2022-11-23T07:48:51.411Z,4.47
2022-11-23T07:51:20.076Z,4.55
2022-11-23T07:53:47.360Z,4.22
2022-11-23T07:56:14.055Z,4.18
2022-11-23T07:58:40.719Z,4.20
2022-11-23T08:01:07.409Z,4.25
2022-11-23T08:03:34.740Z,4.50
2022-11-23T08:06:01.606Z,4.20
2022-11-23T08:08:28.702Z,4.50
2022-11-23T08:10:55.466Z,4.45
2022-11-23T08:13:22.387Z,4.70
2022-11-23T08:15:54.864Z,4.63
2022-11-23T08:18:23.428Z,4.45
2022-11-23T08:20:50.504Z,4.50
2022-11-23T08:23:17.500Z,4.72
2022-11-23T08:25:44.281Z,4.82
2022-11-23T08:28:11.111Z,5.05
2022-11-23T08:30:38.523Z,4.75
2022-11-23T08:33:09.008Z,4.90
2022-11-23T08:35:38.210Z,4.38
2022-11-23T08:38:06.152Z,4.40
2022-11-23T08:40:33.868Z,4.50
2022-11-23T08:43:00.741Z,4.75
2022-11-23T08:45:27.879Z,4.57
2022-11-23T08:47:55.713Z,5.55
2022-11-23T08:50:22.699Z,5.95
2022-11-23T08:52:58.673Z,5.47
2022-11-23T08:55:29.094Z,4.75
2022-11-23T08:57:57.761Z,4.78
2022-11-23T09:00:25.444Z,6.38
2022-11-23T09:02:52.482Z,5.32
2022-11-23T09:05:19.464Z,4.82
2022-11-23T09:07:46.304Z,5.80
2022-11-23T09:10:17.984Z,5.20
2022-11-23T09:12:46.885Z,5.35
2022-11-23T09:15:13.758Z,6.07
2022-11-23T09:17:40.763Z,5.60
2022-11-23T09:20:08.160Z,5.30
2022-11-23T09:22:34.893Z,4.93
2022-11-23T09:25:01.833Z,5.72
2022-11-23T09:27:28.720Z,5.68
2022-11-23T09:29:55.441Z,5.13
2022-11-23T09:32:22.127Z,5.28
2022-11-23T09:34:48.803Z,5.40
2022-11-23T09:37:15.735Z,5.13
2022-11-23T09:39:43.381Z,7.18
2022-11-23T09:42:22.464Z,6.10
2022-11-23T09:45:10.523Z,5.40
2022-11-23T09:47:45.695Z,5.65
2022-11-23T09:50:31.421Z,5.90
2022-11-23T09:53:06.776Z,7.25
2022-11-23T09:55:42.250Z,5.68
2022-11-23T09:58:14.915Z,5.70
2022-11-23T10:00:50.686Z,6.57
2022-11-23T10:03:18.552Z,6.00
2022-11-23T10:06:04.266Z,6.38
2022-11-23T10:08:35.994Z,5.90
2022-11-23T10:11:30.244Z,6.63
2022-11-23T10:14:23.943Z,6.55
2022-11-23T10:16:59.141Z,6.22
2022-11-23T10:19:47.602Z,6.38
2022-11-23T10:22:19.023Z,6.95
2022-11-23T10:24:53.076Z,6.63
2022-11-23T10:27:22.408Z,6.53
2022-11-23T10:29:49.511Z,6.22
2022-11-23T10:32:36.961Z,6.55
2022-11-23T10:35:11.928Z,6.32
2022-11-23T10:37:40.323Z,5.82
2022-11-23T10:40:29.068Z,6.97
2022-11-23T10:43:04.183Z,7.72
2022-11-23T10:45:31.294Z,6.63
2022-11-23T10:48:00.002Z,6.40
2022-11-23T10:50:37.595Z,7.28
2022-11-23T10:53:26.434Z,6.47
2022-11-23T10:55:55.436Z,7.38
2022-11-23T10:58:46.223Z,6.53
2022-11-23T11:01:16.525Z,6.75
2022-11-23T11:03:43.263Z,6.80
2022-11-23T11:06:11.180Z,6.45
2022-11-23T11:09:03.441Z,6.85
2022-11-23T11:11:37.781Z,6.75
2022-11-23T11:14:19.344Z,8.05
2022-11-23T11:16:58.376Z,6.88
2022-11-23T11:19:32.277Z,7.05
2022-11-23T11:22:01.324Z,6.72
2022-11-23T11:24:40.117Z,6.95
2022-11-23T11:27:13.858Z,7.35
2022-11-23T11:29:43.590Z,8.05
2022-11-23T11:32:23.690Z,7.53
2022-11-23T11:35:08.935Z,7.03
2022-11-23T11:37:37.608Z,7.45
2022-11-23T11:40:16.161Z,7.90
2022-11-23T11:43:12.106Z,7.05
2022-11-23T11:45:54.495Z,7.30
2022-11-23T11:48:39.511Z,7.97
2022-11-23T11:51:22.903Z,7.57
2022-11-23T11:54:09.222Z,7.35
2022-11-23T11:56:49.050Z,7.97
2022-11-23T11:59:42.875Z,7.45
2022-11-23T12:02:31.010Z,7.82
2022-11-23T12:05:18.932Z,7.80
2022-11-23T12:08:17.938Z,8.40
2022-11-23T12:10:59.307Z,8.15
2022-11-23T12:13:37.062Z,7.70
2022-11-23T12:16:26.389Z,7.93
2022-11-23T12:18:59.308Z,7.82
2022-11-23T12:21:25.984Z,7.30
2022-11-23T12:24:28.159Z,7.88
2022-11-23T12:27:15.564Z,8.77
2022-11-23T12:30:17.648Z,7.57
2022-11-23T12:32:58.516Z,8.00
2022-11-23T12:35:46.443Z,8.38
2022-11-23T12:38:31.956Z,7.50
2022-11-23T12:41:08.027Z,7.32
2022-11-23T12:43:56.551Z,7.60
2022-11-23T12:46:28.377Z,8.02
2022-11-23T12:49:26.112Z,8.00
2022-11-23T12:52:13.759Z,7.30
2022-11-23T12:55:24.112Z,6.85
2022-11-23T12:58:11.826Z,7.53
2022-11-23T13:00:45.853Z,9.27
2022-11-23T13:03:18.840Z,7.78
2022-11-23T13:06:07.722Z,8.18
2022-11-23T13:09:04.612Z,8.43
2022-11-23T13:11:43.333Z,7.50
2022-11-23T13:14:43.823Z,7.97
2022-11-23T13:17:13.614Z,7.80
2022-11-23T13:20:05.456Z,8.65
2022-11-23T13:22:33.601Z,8.70
2022-11-23T13:25:12.772Z,8.95
2022-11-23T13:27:58.839Z,8.05
2022-11-23T13:30:45.970Z,8.05
2022-11-23T13:33:17.740Z,8.82
2022-11-23T13:35:52.588Z,9.13
2022-11-23T13:38:25.135Z,9.13
2022-11-23T13:40:52.301Z,8.60
2022-11-23T13:43:31.579Z,8.23
2022-11-23T13:46:24.886Z,8.25
2022-11-23T13:48:57.772Z,8.43
2022-11-23T13:51:33.682Z,8.00
2022-11-23T13:54:16.527Z,7.82
2022-11-23T13:56:44.384Z,7.57
2022-11-23T13:59:23.237Z,8.13
2022-11-23T14:01:58.999Z,7.55
2022-11-23T14:04:27.848Z,7.55
2022-11-23T14:06:58.990Z,7.75
2022-11-23T14:09:28.512Z,7.65
2022-11-23T14:12:22.944Z,7.65
2022-11-23T14:15:07.236Z,8.10
2022-11-23T14:17:53.500Z,8.02
2022-11-23T14:20:28.372Z,8.30
2022-11-23T14:23:32.812Z,8.35
2022-11-23T14:26:24.054Z,8.55
2022-11-23T14:29:36.975Z,7.72
2022-11-23T14:32:26.065Z,9.00
2022-11-23T14:35:14.794Z,8.02
2022-11-23T14:38:13.970Z,9.00
2022-11-23T14:41:06.150Z,9.13
2022-11-23T14:43:35.844Z,7.82
2022-11-23T14:46:07.104Z,8.95
2022-11-23T14:48:35.885Z,8.35
2022-11-23T14:51:04.081Z,8.35
2022-11-23T14:53:35.397Z,8.18
2022-11-23T14:56:02.696Z,7.38
2022-11-23T14:58:32.762Z,7.93
2022-11-23T15:01:01.553Z,8.40
2022-11-23T15:03:49.979Z,8.05
2022-11-23T15:06:18.642Z,8.38
2022-11-23T15:09:05.145Z,7.60
2022-11-23T15:11:35.669Z,8.30
2022-11-23T15:14:02.514Z,7.50
2022-11-23T15:16:30.041Z,8.13
2022-11-23T15:18:57.150Z,8.00
2022-11-23T15:21:27.866Z,7.50
2022-11-23T15:23:57.361Z,7.18
2022-11-23T15:26:47.315Z,7.88
2022-11-23T15:29:34.256Z,7.50
2022-11-23T15:34:49.683Z,7.88
2022-11-23T15:37:18.426Z,7.55
2022-11-23T15:39:46.339Z,7.80
2022-11-23T15:42:19.905Z,7.00
2022-11-23T15:44:51.100Z,7.18
2022-11-23T15:47:26.188Z,6.90
2022-11-23T15:50:03.543Z,7.40
2022-11-23T15:52:35.562Z,7.53
2022-11-23T15:55:10.125Z,7.32
2022-11-23T15:57:39.387Z,6.93
2022-11-23T16:00:07.434Z,7.65
2022-11-23T16:02:34.953Z,7.40
2022-11-23T16:05:05.309Z,7.32
2022-11-23T16:07:32.463Z,6.45
2022-11-23T16:10:18.293Z,6.85
2022-11-23T16:12:50.914Z,6.93
2022-11-23T16:15:41.707Z,7.20
2022-11-23T16:18:17.148Z,7.18
2022-11-23T16:21:02.486Z,6.90
2022-11-23T16:23:54.728Z,6.63
2022-11-23T16:26:32.694Z,7.28
2022-11-23T16:29:00.510Z,6.47
2022-11-23T16:31:37.509Z,6.97
2022-11-23T16:34:15.903Z,7.60
2022-11-23T16:36:42.613Z,7.03
2022-11-23T16:39:09.397Z,7.07
2022-11-23T16:41:36.564Z,7.10
2022-11-23T16:44:03.740Z,6.93
2022-11-23T16:46:32.243Z,6.97
2022-11-23T16:49:00.157Z,6.53
2022-11-23T16:51:27.908Z,6.72
2022-11-23T16:56:42.865Z,6.75
2022-11-23T16:59:16.563Z,7.03
2022-11-23T17:01:45.905Z,6.10
2022-11-23T17:04:15.787Z,6.50
2022-11-23T17:06:45.504Z,6.18
2022-11-23T17:09:12.276Z,5.97
2022-11-23T17:11:43.435Z,6.00
2022-11-23T17:14:18.398Z,6.25
2022-11-23T17:16:46.343Z,5.95
2022-11-23T17:19:18.533Z,6.78
2022-11-23T17:21:45.657Z,6.43
2022-11-23T17:24:13.668Z,6.55
2022-11-23T17:26:44.285Z,6.05
2022-11-23T17:29:14.738Z,5.90
2022-11-23T17:31:43.591Z,5.85
2022-11-23T17:34:10.555Z,5.80
2022-11-23T17:36:37.835Z,6.03
2022-11-23T17:39:05.372Z,6.18
2022-11-23T17:41:32.199Z,5.50
2022-11-23T17:43:59.978Z,5.00
2022-11-23T17:46:31.504Z,5.40
2022-11-23T17:49:01.757Z,5.60
2022-11-23T17:51:29.152Z,5.53
2022-11-23T17:53:55.919Z,5.30
2022-11-23T17:56:25.507Z,5.55
2022-11-23T17:58:52.891Z,5.03
2022-11-23T18:01:21.743Z,5.60
2022-11-23T18:03:48.793Z,5.30
2022-11-23T18:06:17.782Z,5.45
2022-11-23T18:08:45.615Z,5.30
2022-11-23T18:11:12.510Z,5.80
2022-11-23T18:13:39.845Z,5.07
2022-11-23T18:16:07.538Z,4.70
2022-11-23T18:18:34.865Z,5.25
2022-11-23T18:21:02.369Z,6.35
2022-11-23T18:23:29.421Z,5.18
2022-11-23T18:26:04.909Z,5.18
2022-11-23T18:28:31.840Z,4.75
2022-11-23T18:30:58.675Z,5.07
2022-11-23T18:33:25.502Z,4.78
2022-11-23T18:35:52.261Z,4.65
2022-11-23T18:38:19.068Z,6.10
2022-11-23T18:40:45.833Z,5.35
2022-11-23T18:43:12.627Z,4.25
2022-11-23T18:45:39.371Z,4.53
2022-11-23T18:48:07.869Z,4.82
2022-11-23T18:50:36.012Z,4.97
2022-11-23T18:53:03.366Z,4.95
2022-11-23T18:55:30.177Z,4.57
2022-11-23T18:57:56.917Z,5.05
2022-11-23T19:00:27.208Z,4.70
2022-11-23T19:02:59.665Z,5.45
2022-11-23T19:05:28.108Z,4.65
2022-11-23T19:07:57.394Z,4.65
2022-11-23T19:10:24.293Z,4.60
2022-11-23T19:12:51.335Z,4.88
2022-11-23T19:15:18.493Z,5.22
2022-11-23T19:17:45.408Z,5.18
2022-11-23T19:20:12.445Z,4.55
2022-11-23T19:22:39.233Z,5.32
2022-11-23T19:25:09.081Z,5.82
2022-11-23T19:27:36.196Z,6.03
2022-11-23T19:30:05.486Z,6.03
2022-11-23T19:32:33.677Z,5.57
2022-11-23T19:35:00.471Z,5.18
2022-11-23T19:37:27.578Z,5.38
2022-11-23T19:39:54.359Z,5.40
2022-11-23T19:42:21.336Z,5.68
2022-11-23T19:44:48.126Z,4.60
2022-11-23T19:47:21.311Z,5.93
2022-11-23T19:49:49.591Z,4.95
2022-11-23T19:52:16.346Z,5.25
2022-11-23T19:54:43.141Z,5.07
2022-11-23T19:57:09.999Z,5.47
2022-11-23T19:59:36.936Z,4.97
2022-11-23T20:02:03.814Z,5.72
2022-11-23T20:04:30.865Z,5.40
2022-11-23T20:06:57.770Z,4.85
2022-11-23T20:09:24.497Z,5.30
2022-11-23T20:11:52.004Z,4.82
2022-11-23T20:14:19.346Z,4.43
2022-11-23T20:16:47.546Z,4.60
2022-11-23T20:19:14.345Z,4.20
2022-11-23T20:21:41.202Z,5.45
2022-11-23T20:24:11.481Z,5.05
2022-11-23T20:26:38.944Z,5.00
2022-11-23T20:29:07.497Z,5.15
2022-11-23T20:31:35.042Z,5.07
2022-11-23T20:34:04.109Z,4.90
2022-11-23T20:36:35.342Z,5.13
2022-11-23T20:39:06.493Z,4.97
2022-11-23T20:41:35.295Z,5.05
2022-11-23T20:44:09.429Z,5.53
2022-11-23T20:49:23.396Z,6.13
2022-11-23T20:51:50.109Z,5.80
2022-11-23T20:54:16.914Z,6.00
2022-11-23T20:56:43.791Z,5.80
2022-11-23T20:59:12.543Z,6.20
2022-11-23T21:01:40.819Z,6.18
2022-11-23T21:04:08.948Z,6.35
2022-11-23T21:06:39.309Z,5.53
2022-11-23T21:09:06.816Z,5.45
2022-11-23T21:11:52.321Z,5.78
2022-11-23T21:14:21.467Z,5.65
2022-11-23T21:16:56.887Z,5.60
2022-11-23T21:19:26.352Z,6.45
2022-11-23T21:25:35.636Z,5.97
2022-11-23T21:28:03.411Z,9.90
2022-11-23T21:30:30.980Z,7.22
2022-11-23T21:32:58.004Z,5.40
2022-11-23T21:35:24.771Z,5.30
2022-11-23T21:37:51.470Z,5.22
2022-11-23T21:40:18.277Z,5.93
2022-11-23T21:42:45.416Z,5.38
2022-11-23T21:45:13.132Z,5.65
2022-11-23T21:47:39.995Z,6.07
2022-11-23T21:50:07.245Z,5.85
2022-11-23T21:52:34.266Z,6.72
2022-11-23T21:55:01.039Z,6.18
2022-11-23T21:57:27.808Z,5.95
2022-11-23T21:59:54.662Z,6.60
2022-11-23T22:02:21.388Z,6.88
2022-11-23T22:04:48.458Z,5.78
2022-11-23T22:07:15.379Z,6.75
2022-11-23T22:09:42.123Z,6.93
2022-11-23T22:12:08.821Z,6.03
2022-11-23T22:14:35.836Z,5.88
2022-11-23T22:17:02.776Z,6.15
2022-11-23T22:19:29.694Z,6.63
2022-11-23T22:21:56.483Z,6.05
2022-11-23T22:24:23.280Z,5.85
2022-11-23T22:26:50.028Z,5.93
2022-11-23T22:29:16.925Z,6.20
2022-11-23T22:31:43.992Z,5.97
2022-11-23T22:34:13.133Z,7.05
2022-11-23T22:36:39.918Z,6.20
2022-11-23T22:39:07.647Z,6.40
2022-11-23T22:41:37.225Z,6.45
2022-11-23T22:44:07.020Z,5.87
2022-11-23T22:46:33.925Z,6.63
2022-11-23T22:49:01.925Z,6.65
2022-11-23T22:51:29.859Z,6.22
2022-11-23T22:54:00.994Z,6.05
2022-11-23T22:56:29.069Z,6.20
2022-11-23T22:58:56.160Z,6.85
2022-11-23T23:01:26.845Z,7.47
2022-11-23T23:03:58.449Z,6.90
2022-11-23T23:06:27.654Z,6.70
2022-11-23T23:08:57.280Z,6.82
2022-11-23T23:11:25.903Z,6.38
2022-11-23T23:13:53.952Z,6.22
2022-11-23T23:16:21.367Z,5.55
2022-11-23T23:18:48.315Z,6.70
2022-11-23T23:21:17.789Z,7.63
2022-11-23T23:23:49.638Z,6.88
2022-11-23T23:26:18.650Z,7.65
2022-11-23T23:28:46.009Z,6.95
2022-11-23T23:31:16.213Z,6.35
2022-11-23T23:33:44.547Z,6.40
2022-11-23T23:36:19.920Z,7.00
2022-11-23T23:38:46.846Z,6.32
2022-11-23T23:41:14.697Z,6.57
2022-11-23T23:43:42.074Z,6.07
2022-11-23T23:46:11.438Z,6.90
2022-11-23T23:48:39.705Z,6.60
2022-11-23T23:51:18.494Z,6.88
2022-11-23T23:53:45.809Z,6.30
2022-11-23T23:56:15.769Z,6.95
2022-11-23T23:58:43.003Z,6.55
